Riverton, Vermont
Current Conditions -  °F | °C
As of 12:51 AM on Saturday 29 Nov 2014 (Local Time) from KMPV Reporting Station
Light Snow Light Snow  
Wind Chill: 11°   Ceiling: 3400
Heat Index: 18°   Visibility: 4mi
Dew Point: 13°   Wind: 5mph
Humidity: 81%   Direction: 290°WNW
Pressure: 30.18"   Gusts: NA
Location:  44.1563°N, 72.6732°W
Report Text: KMPV 290551Z AUTO 29004KT 4SM -SN OVC034 M08/M11 A3018 RMK AO2 SNB0457 SLP242 P0000 60000 T10781106 11072 21106 51007 $
Loading
Personal Weather Stations






























Interactive Weather Map New forecast layout! Learn more

10-Day Weather Forecast

Advertisements
Track Severe Weather on mobile